Time;durP1;ratioP1;P1;durP2;ratioP2;P2;SDS_P1;SDS_P2;PMS_P1;PMS_P2;Temp;Humidity;BMP_temperature;BMP_pressure;BME280_temperature;BME280_humidity;BME280_pressure;Samples;Min_cycle;Max_cycle;Signal;HPM_P1;HPM_P2
2022/01/06 00:01:54;;;;;;;;;;;4.70;99.90;;;4.89;100.00;100343.19;4937167;29;20021;-79
2022/01/06 00:04:21;;;;;;;;;;;7.40;99.90;;;4.93;100.00;100338.00;4935197;29;19935;-80
2022/01/06 00:06:48;;;;;;;;;;;6.90;99.90;;;4.95;100.00;100336.25;4936538;29;19957;-79
2022/01/06 00:09:17;;;;;;;;;;;6.20;99.90;;;4.96;100.00;100340.59;4937098;29;19937;-79
2022/01/06 00:11:44;;;;;;;;;;;5.20;99.90;;;4.91;100.00;100339.72;4953748;29;19965;-79
2022/01/06 00:14:34;;;;;;;;;;;7.40;99.90;;;4.97;100.00;100334.50;4950816;29;19930;-79
2022/01/06 00:18:09;;;;;;;;;;;6.00;99.90;;;4.99;100.00;100326.69;4923263;29;20249;-79
2022/01/06 00:25:23;;;;;;;;;;;6.40;99.90;;;4.97;100.00;100339.72;4937547;28;19933;-78
2022/01/06 00:27:50;;;;;;;;;;;6.60;99.90;;;4.97;100.00;100342.31;4936719;29;19930;-79
2022/01/06 00:30:17;;;;;;;;;;;7.00;99.90;;;4.94;100.00;100331.06;4937139;29;20409;-80
2022/01/06 00:32:44;;;;;;;;;;;5.20;99.90;;;4.96;100.00;100342.34;4935428;29;19927;-79
2022/01/06 00:35:10;;;;;;;;;;;4.80;99.90;;;4.97;100.00;100344.06;4953212;28;19965;-78
2022/01/06 00:37:37;;;;;;;;;;;6.80;99.90;;;5.02;100.00;100339.72;4936494;29;20664;-79
2022/01/06 00:40:05;;;;;;;;;;;7.10;99.90;;;5.07;100.00;100345.81;4952911;29;19930;-78
2022/01/06 00:42:32;;;;;;;;;;;5.00;99.90;;;5.01;100.00;100348.41;4951419;28;19930;-77
2022/01/06 00:44:59;;;;;;;;;;;5.30;99.90;;;5.02;100.00;100346.69;4935617;28;19938;-79
2022/01/06 00:47:26;;;;;;;;;;;5.10;99.90;;;5.02;100.00;100363.19;4936515;29;20395;-78
2022/01/06 00:49:53;;;;;;;;;;;4.60;99.90;;;5.03;100.00;100354.47;4952536;29;20379;-79
2022/01/06 00:52:20;;;;;;;;;;;6.60;99.90;;;5.05;100.00;100341.47;4943273;29;19936;-79
2022/01/06 00:54:46;;;;;;;;;;;6.90;99.90;;;4.99;100.00;100347.53;4958700;29;20776;-78
2022/01/06 00:57:13;;;;;;;;;;;6.30;99.90;;;5.10;100.00;100357.97;4945118;29;19998;-79
2022/01/06 00:59:40;;;;;;;;;;;6.20;99.90;;;5.03;100.00;100344.06;4945921;28;19931;-79
2022/01/06 01:02:07;;;;;;;;;;;4.70;99.90;;;5.03;100.00;100344.06;4945837;29;20009;-79
2022/01/06 01:04:34;;;;;;;;;;;7.20;99.90;;;5.04;100.00;100344.94;4944534;29;20571;-79
2022/01/06 01:07:01;;;;;;;;;;;4.80;99.90;;;5.04;100.00;100345.78;4961000;28;19980;-79
2022/01/06 01:09:30;;;;;;;;;;;4.90;99.90;;;5.09;100.00;100354.50;4943982;29;20006;-78
2022/01/06 01:12:02;;;;;;;;;;;4.90;99.90;;;5.14;100.00;100356.22;4961578;29;20542;-78
2022/01/06 01:14:32;;;;;;;;;;;7.00;99.90;;;5.05;100.00;100360.56;4943879;29;19954;-79
2022/01/06 01:17:02;;;;;;;;;;;4.70;99.90;;;5.12;100.00;100361.41;4945608;29;19930;-79
2022/01/06 01:19:30;;;;;;;;;;;7.50;99.90;;;4.97;100.00;100360.56;4947544;29;20192;-79
2022/01/06 01:21:57;;;;;;;;;;;4.80;99.90;;;5.10;100.00;100363.16;4960720;29;19922;-79
2022/01/06 01:24:24;;;;;;;;;;;5.80;99.90;;;5.07;100.00;100363.19;4943654;29;19936;-79
2022/01/06 01:26:51;;;;;;;;;;;7.90;99.90;;;5.14;100.00;100369.25;4960831;29;20194;-79
2022/01/06 01:29:19;;;;;;;;;;;5.00;99.90;;;5.13;100.00;100370.13;4961135;29;19935;-78
2022/01/06 01:31:49;;;;;;;;;;;4.80;99.90;;;5.16;100.00;100371.00;4974131;28;19927;-78
2022/01/06 01:34:23;;;;;;;;;;;6.40;99.90;;;5.04;100.00;100369.25;4970512;28;19914;-79
2022/01/06 01:36:51;;;;;;;;;;;8.60;99.90;;;5.07;100.00;100371.00;4966739;28;19937;-79
2022/01/06 01:39:18;;;;;;;;;;;6.20;99.90;;;5.13;100.00;100384.03;4960073;28;19938;-79
2022/01/06 01:41:45;;;;;;;;;;;6.10;99.90;;;5.13;100.00;100384.03;4952562;28;19934;-78
2022/01/06 01:44:16;;;;;;;;;;;6.40;99.90;;;5.14;100.00;100388.38;4941586;29;19930;-79
2022/01/06 01:46:51;;;;;;;;;;;7.80;99.90;;;5.29;100.00;100379.66;4946122;29;20361;-79
2022/01/06 01:51:51;;;;;;;;;;;7.70;99.90;;;5.23;100.00;100397.94;4960470;28;19937;-79
2022/01/06 01:54:18;;;;;;;;;;;7.70;99.90;;;5.18;100.00;100384.03;4927895;29;19940;-78
2022/01/06 01:56:45;;;;;;;;;;;6.70;99.90;;;5.18;100.00;100397.94;4960577;28;19933;-79
2022/01/06 01:59:13;;;;;;;;;;;6.30;99.90;;;5.17;100.00;100398.81;4929179;29;19935;-78
2022/01/06 02:01:42;;;;;;;;;;;4.90;99.90;;;5.20;100.00;100398.81;4960979;29;19962;-79
2022/01/06 02:04:09;;;;;;;;;;;7.30;99.90;;;5.23;100.00;100408.38;4943487;29;19986;-78
2022/01/06 02:06:36;;;;;;;;;;;6.80;99.90;;;5.18;100.00;100410.13;4959978;29;19953;-79
2022/01/06 02:09:03;;;;;;;;;;;7.20;99.90;;;5.21;100.00;100417.94;4960971;29;20396;-79
2022/01/06 02:11:30;;;;;;;;;;;7.50;99.90;;;5.23;100.00;100424.03;4976856;28;19937;-78
2022/01/06 02:13:59;;;;;;;;;;;6.50;99.90;;;5.25;100.00;100430.97;4975153;28;19937;-79
2022/01/06 02:16:27;;;;;;;;;;;5.70;99.90;;;5.16;100.00;100424.91;4976114;28;19931;-79
2022/01/06 02:18:54;;;;;;;;;;;7.80;99.90;;;5.18;100.00;100425.75;4975955;28;19933;-80
2022/01/06 02:21:21;;;;;;;;;;;6.90;99.90;;;5.24;100.00;100431.84;4944404;28;20295;-78
2022/01/06 02:23:48;;;;;;;;;;;5.00;99.90;;;5.20;100.00;100437.06;4959223;29;20548;-79
2022/01/06 02:26:18;;;;;;;;;;;6.00;99.90;;;5.20;100.00;100440.56;4960731;29;20588;-79
2022/01/06 02:28:45;;;;;;;;;;;5.30;99.90;;;5.20;100.00;100443.16;4976042;28;19927;-79
2022/01/06 02:31:12;;;;;;;;;;;6.00;99.90;;;5.22;100.00;100444.03;4943332;29;19930;-78
2022/01/06 02:33:51;;;;;;;;;;;3.70;99.90;;;5.22;100.00;100443.16;4960430;28;19972;-79
2022/01/06 02:36:19;;;;;;;;;;;5.00;99.90;;;5.22;100.00;100456.19;4960217;28;19936;-79
2022/01/06 02:38:46;;;;;;;;;;;6.20;99.90;;;5.17;100.00;100450.13;4960276;28;19989;-79
2022/01/06 02:41:13;;;;;;;;;;;5.20;99.90;;;5.23;100.00;100458.81;4960058;29;19927;-79
2022/01/06 02:43:40;;;;;;;;;;;6.50;99.90;;;5.21;100.00;100459.66;4957968;29;19933;-79
2022/01/06 02:46:09;;;;;;;;;;;4.90;99.90;;;5.21;100.00;100462.28;4943422;29;20491;-79
2022/01/06 02:48:36;;;;;;;;;;;7.80;99.90;;;5.25;100.00;100458.81;4959175;28;20370;-79
2022/01/06 02:51:04;;;;;;;;;;;4.30;99.90;;;5.14;100.00;100469.22;4942248;29;19931;-79
2022/01/06 02:53:31;;;;;;;;;;;5.00;99.90;;;5.16;100.00;100459.69;4941566;29;19937;-78
2022/01/06 02:56:00;;;;;;;;;;;7.70;99.90;;;5.18;100.00;100468.38;4942044;28;19941;-78
2022/01/06 02:58:42;;;;;;;;;;;6.80;99.90;;;5.17;100.00;100463.16;4971677;28;20390;-79
2022/01/06 03:01:09;;;;;;;;;;;4.90;99.90;;;5.15;100.00;100468.38;4973738;28;19937;-78
2022/01/06 03:03:36;;;;;;;;;;;6.90;99.90;;;5.14;100.00;100465.78;4958232;28;19931;-79
2022/01/06 03:06:03;;;;;;;;;;;8.50;99.90;;;5.09;100.00;100468.38;4957543;28;19930;-79
2022/01/06 03:08:30;;;;;;;;;;;5.40;99.90;;;5.12;100.00;100455.31;4974134;28;19937;-78
2022/01/06 03:10:57;;;;;;;;;;;7.80;99.90;;;5.16;100.00;100469.25;4974356;28;19926;-78
2022/01/06 03:13:24;;;;;;;;;;;6.50;99.90;;;5.12;100.00;100463.16;4959347;28;19934;-79
2022/01/06 03:15:51;;;;;;;;;;;4.90;99.90;;;5.09;100.00;100469.25;4943086;29;19930;-79
2022/01/06 03:18:18;;;;;;;;;;;5.90;99.90;;;5.13;100.00;100479.69;4958427;29;19931;-79
2022/01/06 03:20:48;;;;;;;;;;;5.00;99.90;;;5.17;100.00;100476.19;4958364;29;19931;-79
2022/01/06 03:23:15;;;;;;;;;;;5.10;99.90;;;5.09;100.00;100479.69;4923948;29;19936;-79
2022/01/06 03:25:42;;;;;;;;;;;5.30;99.90;;;5.16;100.00;100484.91;4937887;28;20002;-79
2022/01/06 03:28:11;;;;;;;;;;;6.50;99.90;;;5.13;100.00;100479.69;4932128;29;19934;-79
2022/01/06 03:30:38;;;;;;;;;;;5.20;99.90;;;5.14;100.00;100482.28;4934496;29;19966;-79
2022/01/06 03:33:05;;;;;;;;;;;6.20;99.90;;;5.18;100.00;100478.81;4948854;28;19931;-78
2022/01/06 03:35:32;;;;;;;;;;;7.30;99.90;;;5.10;100.00;100481.44;4950075;29;19941;-79
2022/01/06 03:37:59;;;;;;;;;;;6.50;99.90;;;5.03;100.00;100484.88;4932543;29;19941;-79
2022/01/06 03:40:26;;;;;;;;;;;5.00;99.90;;;5.05;100.00;100492.72;4934708;28;19931;-79
2022/01/06 03:42:53;;;;;;;;;;;8.00;99.90;;;5.03;100.00;100486.63;4965333;28;19926;-80
2022/01/06 03:45:20;;;;;;;;;;;6.60;99.90;;;5.04;100.00;100488.38;4966943;28;19934;-78
2022/01/06 03:47:50;;;;;;;;;;;6.10;99.90;;;4.96;100.00;100493.59;4966730;28;19930;-78
2022/01/06 03:50:18;;;;;;;;;;;7.00;99.90;;;4.97;100.00;100490.09;4949650;28;19941;-79
2022/01/06 03:52:45;;;;;;;;;;;5.20;99.90;;;4.97;100.00;100492.72;4934322;29;20510;-78
2022/01/06 03:55:15;;;;;;;;;;;8.20;99.90;;;4.96;100.00;100490.97;4950753;29;19941;-77
2022/01/06 03:57:42;;;;;;;;;;;5.20;99.90;;;4.96;100.00;100490.97;4935464;29;19931;-79
2022/01/06 04:00:12;;;;;;;;;;;6.00;99.90;;;4.93;100.00;100490.97;4951565;29;20001;-79
2022/01/06 04:02:54;;;;;;;;;;;4.80;99.90;;;4.94;100.00;100501.38;4951085;28;19927;-80
2022/01/06 04:05:21;;;;;;;;;;;5.50;99.90;;;4.91;100.00;100497.91;4966416;28;19931;-78
2022/01/06 04:07:51;;;;;;;;;;;4.40;99.90;;;4.94;100.00;100493.56;4951136;29;19946;-79
2022/01/06 04:10:17;;;;;;;;;;;6.20;99.90;;;4.89;100.00;100508.34;4952732;29;19953;-79
2022/01/06 04:12:44;;;;;;;;;;;7.80;99.90;;;4.85;100.00;100504.00;4952156;28;19965;-80
2022/01/06 04:15:13;;;;;;;;;;;7.30;99.90;;;4.83;100.00;100514.41;4950534;28;19988;-79
2022/01/06 04:17:42;;;;;;;;;;;5.00;99.90;;;4.81;100.00;100518.75;4934527;29;20616;-80
2022/01/06 04:20:12;;;;;;;;;;;4.80;99.90;;;4.83;100.00;100516.13;4950088;29;19931;-79
2022/01/06 04:22:42;;;;;;;;;;;4.70;99.90;;;4.78;100.00;100508.34;4965969;28;19934;-79
2022/01/06 04:25:09;;;;;;;;;;;5.40;99.90;;;4.81;100.00;100510.06;4949838;29;19980;-80
2022/01/06 04:27:37;;;;;;;;;;;7.40;99.90;;;4.76;100.00;100515.28;4935147;28;20396;-79
2022/01/06 04:30:05;;;;;;;;;;;7.50;99.90;;;4.74;100.00;100516.13;4966224;28;20446;-80
2022/01/06 04:32:34;;;;;;;;;;;4.60;99.90;;;4.78;100.00;100520.47;4965766;28;20001;-79
2022/01/06 04:35:04;;;;;;;;;;;7.40;99.90;;;4.67;100.00;100536.09;4953609;28;19931;-79
2022/01/06 04:37:31;;;;;;;;;;;6.60;99.90;;;4.80;100.00;100535.28;4947942;28;19972;-80
2022/01/06 04:39:58;;;;;;;;;;;5.00;99.90;;;4.81;100.00;100543.94;4946460;28;19930;-78
2022/01/06 04:42:25;;;;;;;;;;;4.80;99.90;;;4.69;100.00;100547.41;4947796;29;20649;-79
2022/01/06 04:44:55;;;;;;;;;;;7.80;99.90;;;4.67;100.00;100543.91;4949128;29;19966;-79
2022/01/06 04:47:22;;;;;;;;;;;5.10;99.90;;;4.60;100.00;100556.06;4968275;28;19936;-78
2022/01/06 04:49:49;;;;;;;;;;;4.70;99.90;;;4.65;100.00;100561.28;4951404;29;19935;-79
2022/01/06 04:52:16;;;;;;;;;;;6.80;99.90;;;4.59;100.00;100566.47;4951287;29;20084;-77
2022/01/06 04:54:43;;;;;;;;;;;6.90;99.90;;;4.63;100.00;100563.03;4950313;29;20414;-79
2022/01/06 04:57:10;;;;;;;;;;;4.80;99.90;;;4.63;100.00;100578.66;4951730;28;19942;-79
2022/01/06 04:59:37;;;;;;;;;;;4.60;99.90;;;4.63;100.00;100576.06;4949488;29;19937;-79
2022/01/06 05:02:05;;;;;;;;;;;6.40;99.90;;;4.62;100.00;100575.19;4963883;28;19931;-78
2022/01/06 05:04:32;;;;;;;;;;;4.40;99.90;;;4.63;100.00;100578.66;4948636;29;20559;-78
2022/01/06 05:07:00;;;;;;;;;;;4.30;99.90;;;4.59;100.00;100583.00;4955516;28;19940;-78
2022/01/06 05:09:26;;;;;;;;;;;5.60;99.90;;;4.57;100.00;100587.31;4968467;28;20387;-78
2022/01/06 05:11:53;;;;;;;;;;;4.40;99.90;;;4.51;100.00;100582.97;4953299;28;19931;-79
2022/01/06 05:14:20;;;;;;;;;;;4.00;99.90;;;4.43;100.00;100591.59;4968297;28;19938;-78
2022/01/06 05:16:47;;;;;;;;;;;6.60;99.90;;;4.40;100.00;100584.63;4952416;28;19937;-78
2022/01/06 05:19:14;;;;;;;;;;;4.30;99.90;;;4.39;100.00;100591.59;4952274;28;19960;-78
2022/01/06 05:21:41;;;;;;;;;;;6.00;99.90;;;4.37;100.00;100597.66;4952087;28;20036;-78
2022/01/06 05:24:16;;;;;;;;;;;4.30;99.90;;;4.36;100.00;100590.69;4935303;28;19926;-78
2022/01/06 05:26:43;;;;;;;;;;;6.10;99.90;;;4.32;100.00;100605.44;4966394;28;19948;-77
2022/01/06 05:29:11;;;;;;;;;;;4.20;99.90;;;4.38;100.00;100602.00;4966656;28;20000;-77
2022/01/06 05:31:38;;;;;;;;;;;4.70;99.90;;;4.33;100.00;100601.09;4950165;28;19927;-78
2022/01/06 05:34:06;;;;;;;;;;;4.20;99.90;;;4.35;100.00;100608.06;4983339;28;19933;-77
2022/01/06 05:36:37;;;;;;;;;;;6.90;99.90;;;4.41;100.00;100604.59;4972966;28;19931;-78
2022/01/06 05:39:04;;;;;;;;;;;4.10;99.90;;;4.33;100.00;100612.38;4935697;29;20047;-79
2022/01/06 05:41:31;;;;;;;;;;;4.20;99.90;;;4.33;100.00;100608.91;4951406;28;20342;-77
2022/01/06 05:43:59;;;;;;;;;;;5.50;99.90;;;4.37;100.00;100616.78;4952931;28;19932;-79
2022/01/06 05:46:26;;;;;;;;;;;4.40;99.90;;;4.37;100.00;100621.09;4955181;28;19973;-78
2022/01/06 05:48:53;;;;;;;;;;;6.30;99.90;;;4.38;100.00;100626.31;4953720;28;19926;-79
2022/01/06 05:51:20;;;;;;;;;;;4.30;99.90;;;4.37;100.00;100623.69;4969789;28;19930;-79
2022/01/06 05:53:49;;;;;;;;;;;5.30;99.90;;;4.43;100.00;100628.09;4953473;28;19937;-78
2022/01/06 05:56:16;;;;;;;;;;;4.20;99.90;;;4.36;100.00;100625.41;4968044;28;19930;-78
2022/01/06 05:58:43;;;;;;;;;;;2.90;99.90;;;4.37;100.00;100637.63;4969211;28;19930;-78
2022/01/06 06:01:10;;;;;;;;;;;4.20;99.90;;;4.40;100.00;100636.75;4969428;28;19930;-78
2022/01/06 06:03:37;;;;;;;;;;;4.30;99.90;;;4.37;100.00;100634.13;4937315;29;20001;-78
2022/01/06 06:06:04;;;;;;;;;;;5.70;99.90;;;4.31;100.00;100631.50;4933683;29;19930;-78
2022/01/06 06:08:31;;;;;;;;;;;4.40;99.90;;;4.34;100.00;100636.72;4933090;29;20507;-79
2022/01/06 06:10:58;;;;;;;;;;;3.40;99.90;;;4.30;100.00;100640.16;4934110;29;19930;-78
2022/01/06 06:13:25;;;;;;;;;;;4.10;99.90;;;4.24;100.00;100651.41;4917143;29;19926;-78
2022/01/06 06:15:52;;;;;;;;;;;4.20;99.90;;;4.25;100.00;100654.00;4933704;29;19930;-78
2022/01/06 06:18:19;;;;;;;;;;;7.10;99.90;;;4.20;100.00;100654.84;4948761;29;19930;-78
2022/01/06 06:20:46;;;;;;;;;;;4.30;99.90;;;4.26;100.00;100660.13;4934799;29;19960;-79
2022/01/06 06:23:12;;;;;;;;;;;5.00;99.90;;;4.20;100.00;100662.66;4952253;28;19930;-78
2022/01/06 06:25:39;;;;;;;;;;;4.20;99.90;;;4.19;100.00;100664.41;4934821;29;19938;-78
2022/01/06 06:28:07;;;;;;;;;;;6.50;99.90;;;4.24;100.00;100675.72;4934161;29;19931;-78
2022/01/06 06:30:33;;;;;;;;;;;4.60;99.90;;;4.25;100.00;100676.59;4950834;29;20024;-78
2022/01/06 06:33:01;;;;;;;;;;;5.40;99.90;;;4.21;100.00;100682.63;4949323;29;19938;-78
2022/01/06 06:35:29;;;;;;;;;;;4.70;99.90;;;4.15;100.00;100680.00;4951236;28;20361;-78
2022/01/06 06:37:56;;;;;;;;;;;4.10;99.90;;;4.19;100.00;100679.16;4918172;29;19931;-78
2022/01/06 06:40:23;;;;;;;;;;;6.00;99.90;;;4.20;100.00;100692.19;4951360;28;19936;-78
2022/01/06 06:42:51;;;;;;;;;;;6.90;99.90;;;4.18;100.00;100688.72;4934799;29;19930;-78
2022/01/06 06:45:19;;;;;;;;;;;5.10;99.90;;;4.15;100.00;100691.31;4952016;28;19930;-78
2022/01/06 06:47:46;;;;;;;;;;;5.20;99.90;;;4.20;100.00;100696.50;4934906;29;19930;-78
2022/01/06 06:50:15;;;;;;;;;;;4.00;99.90;;;4.22;100.00;100684.41;4950525;29;20624;-79
2022/01/06 06:52:45;;;;;;;;;;;6.60;99.90;;;4.17;100.00;100693.91;4932607;29;19937;-79
2022/01/06 06:55:13;;;;;;;;;;;4.20;99.90;;;4.14;100.00;100688.66;4933206;28;20314;-79
2022/01/06 06:57:40;;;;;;;;;;;4.30;99.90;;;4.15;100.00;100690.41;4931290;29;19927;-77
2022/01/06 07:00:09;;;;;;;;;;;3.80;99.90;;;4.04;100.00;100693.78;4948763;28;19930;-78
2022/01/06 07:02:36;;;;;;;;;;;4.10;99.90;;;4.04;100.00;100706.81;4947885;29;19930;-79
2022/01/06 07:05:04;;;;;;;;;;;5.80;99.90;;;4.05;100.00;100699.88;4947251;28;20124;-79
2022/01/06 07:07:31;;;;;;;;;;;4.10;99.90;;;4.01;100.00;100705.94;4950178;28;19936;-77
2022/01/06 07:09:58;;;;;;;;;;;5.20;99.90;;;3.95;100.00;100709.34;4934329;29;20449;-80
2022/01/06 07:12:25;;;;;;;;;;;4.10;99.90;;;3.93;100.00;100721.50;4932621;28;19939;-80
2022/01/06 07:14:52;;;;;;;;;;;6.30;99.90;;;3.85;100.00;100718.81;4917499;28;19930;-81
2022/01/06 07:17:19;;;;;;;;;;;6.70;99.90;;;3.87;100.00;100717.09;4932865;29;19927;-79
2022/01/06 07:19:46;;;;;;;;;;;6.30;99.90;;;3.84;100.00;100709.25;4934149;29;19930;-80
2022/01/06 07:22:13;;;;;;;;;;;4.80;99.90;;;3.81;100.00;100711.81;4932076;29;19926;-80
2022/01/06 07:24:40;;;;;;;;;;;5.40;99.90;;;3.79;100.00;100722.22;4947818;29;20418;-80
2022/01/06 07:27:07;;;;;;;;;;;5.70;99.90;;;3.73;100.00;100718.69;4931958;29;19938;-79
2022/01/06 07:29:34;;;;;;;;;;;4.00;99.90;;;3.81;100.00;100727.44;4947380;29;19934;-81
2022/01/06 07:32:01;;;;;;;;;;;3.90;99.90;;;3.71;100.00;100731.69;4935825;28;20485;-78
2022/01/06 07:34:29;;;;;;;;;;;3.90;99.90;;;3.69;100.00;100733.41;4919315;29;20346;-80
2022/01/06 07:36:56;;;;;;;;;;;6.10;99.90;;;3.71;100.00;100723.00;4931165;29;20339;-78
2022/01/06 07:39:22;;;;;;;;;;;5.80;99.90;;;3.67;100.00;100736.00;4924462;29;19931;-80
2022/01/06 07:41:49;;;;;;;;;;;6.00;99.90;;;3.59;100.00;100736.75;4947314;29;19938;-78
2022/01/06 07:44:20;;;;;;;;;;;4.80;99.90;;;3.60;100.00;100744.59;4941733;29;19953;-80
2022/01/06 07:46:47;;;;;;;;;;;3.60;99.90;;;3.56;100.00;100745.41;4979368;28;19931;-80
2022/01/06 07:49:15;;;;;;;;;;;4.30;99.90;;;3.52;100.00;100743.66;4950172;28;19931;-79
2022/01/06 07:51:42;;;;;;;;;;;3.40;99.90;;;3.50;100.00;100738.41;4946334;29;19930;-79
2022/01/06 07:54:09;;;;;;;;;;;4.10;99.90;;;3.55;100.00;100754.09;4930128;29;19930;-80
2022/01/06 07:56:36;;;;;;;;;;;6.00;99.90;;;3.52;100.00;100759.25;4937019;28;19937;-79
2022/01/06 07:59:03;;;;;;;;;;;3.70;99.90;;;3.52;100.00;100761.84;4936980;29;20021;-79
2022/01/06 08:01:30;;;;;;;;;;;3.50;99.90;;;3.46;100.00;100765.25;4937676;29;19934;-79
2022/01/06 08:03:57;;;;;;;;;;;6.00;99.90;;;3.52;100.00;100767.06;4935872;29;19980;-79
2022/01/06 08:06:24;;;;;;;;;;;4.50;99.90;;;3.51;100.00;100770.50;4961571;28;19942;-79
2022/01/06 08:08:51;;;;;;;;;;;3.70;99.90;;;3.45;100.00;100760.03;4951791;28;19937;-79
2022/01/06 08:11:18;;;;;;;;;;;5.70;99.90;;;3.48;100.00;100771.34;4937265;29;20817;-79
2022/01/06 08:13:49;;;;;;;;;;;3.50;99.90;;;3.53;100.00;100784.41;4951376;29;20338;-80
2022/01/06 08:16:15;;;;;;;;;;;3.90;99.90;;;3.53;100.00;100784.41;4937136;29;20307;-79
2022/01/06 08:18:42;;;;;;;;;;;3.60;99.90;;;3.56;100.00;100789.66;4936448;29;19926;-78
2022/01/06 08:21:09;;;;;;;;;;;4.80;99.90;;;3.52;100.00;100788.72;4954982;29;20006;-79
2022/01/06 08:23:36;;;;;;;;;;;3.60;99.90;;;3.53;100.00;100779.22;4936318;29;19930;-80
2022/01/06 08:26:03;;;;;;;;;;;5.80;99.90;;;3.50;100.00;100780.03;4938000;29;20600;-79
2022/01/06 08:28:30;;;;;;;;;;;4.30;99.90;;;3.52;100.00;100782.69;4952205;29;19930;-79
2022/01/06 08:30:57;;;;;;;;;;;6.10;99.90;;;3.60;100.00;100798.38;4936937;29;20005;-78
2022/01/06 08:33:25;;;;;;;;;;;5.50;99.90;;;3.55;100.00;100798.31;4921223;29;19977;-78
2022/01/06 08:35:53;;;;;;;;;;;6.50;99.90;;;3.66;100.00;100801.91;4938363;29;19930;-79
2022/01/06 08:38:20;;;;;;;;;;;3.70;99.90;;;3.63;100.00;100799.25;4953700;29;20214;-79
2022/01/06 08:40:47;;;;;;;;;;;3.90;99.90;;;3.65;100.00;100809.69;4954135;29;19927;-79
2022/01/06 08:43:14;;;;;;;;;;;3.70;99.90;;;3.68;100.00;100808.00;4935156;29;19930;-79
2022/01/06 08:45:41;;;;;;;;;;;3.90;99.90;;;3.69;100.00;100807.16;4935926;29;20438;-78
2022/01/06 08:48:08;;;;;;;;;;;3.60;99.90;;;3.81;100.00;100811.63;4938958;29;19930;-79
2022/01/06 08:50:35;;;;;;;;;;;3.80;99.90;;;3.81;100.00;100814.22;4935203;28;20032;-79
2022/01/06 08:53:02;;;;;;;;;;;5.30;99.90;;;3.79;100.00;100805.53;4950377;29;19930;-80
2022/01/06 08:55:29;;;;;;;;;;;3.90;99.90;;;3.79;100.00;100808.13;4919414;29;20371;-77
2022/01/06 08:57:57;;;;;;;;;;;6.20;99.90;;;3.88;100.00;100809.06;4954709;29;19973;-78
2022/01/06 09:00:24;;;;;;;;;;;3.30;99.90;;;3.88;100.00;100827.28;4949016;29;19934;-79
2022/01/06 09:02:51;;;;;;;;;;;3.90;99.90;;;3.93;100.00;100825.63;4918273;29;19996;-79
2022/01/06 09:05:18;;;;;;;;;;;4.00;99.90;;;4.01;100.00;100823.09;4917994;29;20091;-78
2022/01/06 09:07:45;;;;;;;;;;;6.00;99.90;;;4.09;100.00;100834.47;4935238;29;19933;-79
2022/01/06 09:10:12;;;;;;;;;;;5.20;99.90;;;4.08;100.00;100825.78;4936742;28;19930;-79
2022/01/06 09:12:39;;;;;;;;;;;2.80;99.90;;;4.17;100.00;100834.53;4915989;29;19994;-80
2022/01/06 09:15:08;;;;;;;;;;;6.10;99.90;;;4.19;100.00;100827.59;4917170;29;19937;-80
2022/01/06 09:17:36;;;;;;;;;;;4.10;99.90;;;4.32;100.00;100841.66;4917208;29;19931;-80
2022/01/06 09:20:05;;;;;;;;;;;4.20;99.90;;;4.40;100.00;100843.47;4922753;29;19931;-79
2022/01/06 09:22:38;;;;;;;;;;;4.20;99.90;;;4.47;100.00;100836.56;4972886;28;19966;-81
2022/01/06 09:25:05;;;;;;;;;;;4.50;99.90;;;4.58;100.00;100838.38;4961984;28;19931;-80
2022/01/06 09:27:32;;;;;;;;;;;4.50;99.90;;;4.70;100.00;100840.22;4939326;29;19970;-79
2022/01/06 09:29:59;;;;;;;;;;;4.60;99.90;;;4.67;100.00;100844.53;4931793;29;19931;-79
2022/01/06 09:32:26;;;;;;;;;;;7.30;99.90;;;4.63;100.00;100841.91;4948916;29;20732;-78
2022/01/06 09:34:53;;;;;;;;;;;6.00;99.90;;;5.05;100.00;100845.69;4929250;29;19942;-78
2022/01/06 09:37:21;;;;;;;;;;;6.90;99.90;;;4.61;100.00;100844.50;4932653;29;19961;-79
2022/01/06 09:39:50;;;;;;;;;;;4.70;99.90;;;4.67;100.00;100854.97;4931686;29;20014;-79
2022/01/06 09:42:19;;;;;;;;;;;4.60;99.90;;;4.62;100.00;100859.28;4933014;29;19937;-79
2022/01/06 09:44:48;;;;;;;;;;;4.80;99.90;;;4.72;100.00;100861.97;4932366;29;19949;-79
2022/01/06 09:47:16;;;;;;;;;;;4.70;99.90;;;4.78;100.00;100856.78;4930771;29;19985;-79
2022/01/06 09:50:04;;;;;;;;;;;4.80;99.90;;;4.76;100.00;100859.41;4949012;28;19936;-80
2022/01/06 09:52:33;;;;;;;;;;;4.60;99.90;;;4.75;100.00;100860.25;4946637;28;19930;-78
2022/01/06 09:55:03;;;;;;;;;;;4.40;99.90;;;4.83;100.00;100858.56;4932778;29;20533;-79
2022/01/06 09:57:30;;;;;;;;;;;6.90;99.90;;;4.80;100.00;100857.66;4933195;29;19939;-80
2022/01/06 09:59:57;;;;;;;;;;;5.20;99.90;;;4.85;100.00;100862.94;4934008;29;20025;-80
2022/01/06 10:02:36;;;;;;;;;;;8.00;99.90;;;4.93;100.00;100869.09;4915422;29;19934;-80
2022/01/06 10:05:05;;;;;;;;;;;4.60;99.90;;;4.97;100.00;100876.06;4931512;29;19934;-79
2022/01/06 10:07:40;;;;;;;;;;;4.80;99.90;;;5.08;100.00;100871.81;4931273;29;19938;-77
2022/01/06 10:10:12;;;;;;;;;;;4.90;99.90;;;5.82;100.00;100876.53;4946256;28;19930;-77
2022/01/06 10:12:40;;;;;;;;;;;5.10;99.90;;;5.67;100.00;100864.28;4963844;28;19935;-76
2022/01/06 10:15:22;;;;;;;;;;;7.40;99.90;;;5.28;100.00;100860.63;4928104;29;19941;-76
2022/01/06 10:17:49;;;;;;;;;;;5.20;99.90;;;5.22;100.00;100869.28;4960318;28;19931;-76
2022/01/06 10:20:22;;;;;;;;;;;5.10;99.90;;;5.27;100.00;100873.63;4944498;28;20385;-76
2022/01/06 10:22:54;;;;;;;;;;;5.30;99.90;;;5.82;100.00;100868.69;4944306;29;20388;-76
2022/01/06 10:25:22;;;;;;;;;;;6.40;99.90;;;5.35;100.00;100869.34;4944878;29;19930;-77
2022/01/06 10:27:56;;;;;;;;;;;6.80;99.90;;;5.24;100.00;100864.94;4960999;28;20093;-77
2022/01/06 10:30:26;;;;;;;;;;;7.50;99.90;;;5.32;100.00;100875.41;4961795;28;19933;-77
2022/01/06 10:32:58;;;;;;;;;;;5.80;99.90;;;5.27;100.00;100864.09;4960375;28;19937;-77
2022/01/06 10:35:25;;;;;;;;;;;8.10;99.90;;;5.28;100.00;100868.44;4944367;29;19930;-77
2022/01/06 10:37:52;;;;;;;;;;;5.20;99.90;;;5.30;100.00;100871.94;4960846;28;19973;-77
2022/01/06 10:40:25;;;;;;;;;;;5.10;99.90;;;5.33;100.00;100873.69;4949092;28;20013;-77
2022/01/06 10:42:55;;;;;;;;;;;6.50;99.90;;;5.37;100.00;100881.53;4942540;28;20060;-76
2022/01/06 10:45:25;;;;;;;;;;;5.20;99.90;;;5.34;100.00;100878.03;4944064;28;20416;-77
2022/01/06 10:47:57;;;;;;;;;;;5.00;99.90;;;5.84;100.00;100880.88;4963250;28;19931;-77
2022/01/06 10:50:34;;;;;;;;;;;5.20;99.90;;;5.32;100.00;100877.16;4927577;28;19934;-76
2022/01/06 10:53:01;;;;;;;;;;;5.10;99.90;;;5.31;100.00;100875.44;4944476;29;19977;-76
2022/01/06 10:55:31;;;;;;;;;;;6.10;99.90;;;5.34;100.00;100880.66;4945950;28;19934;-77
2022/01/06 10:58:09;;;;;;;;;;;6.30;99.90;;;5.96;100.00;100876.56;4944749;29;19937;-77
2022/01/06 11:00:39;;;;;;;;;;;5.20;99.90;;;6.13;100.00;100883.63;4957647;28;19937;-76
2022/01/06 11:03:11;;;;;;;;;;;5.10;99.90;;;6.20;100.00;100879.28;4947697;28;20786;-77
2022/01/06 11:05:51;;;;;;;;;;;5.50;99.90;;;5.96;100.00;100875.72;4964766;28;19926;-77
2022/01/06 11:08:21;;;;;;;;;;;7.60;99.90;;;5.86;100.00;100881.75;4947648;28;19926;-77
2022/01/06 11:13:52;;;;;;;;;;;6.00;99.90;;;6.00;100.00;100882.69;4983543;28;19987;-78
2022/01/06 11:16:20;;;;;;;;;;;5.80;99.90;;;6.10;100.00;100884.50;4943725;29;20376;-76
2022/01/06 11:18:52;;;;;;;;;;;6.90;99.90;;;6.60;100.00;100881.06;4928237;29;19927;-76
2022/01/06 11:21:41;;;;;;;;;;;6.00;99.90;;;6.95;100.00;100882.84;4964210;28;20483;-76
2022/01/06 11:24:18;;;;;;;;;;;6.10;99.90;;;6.39;100.00;100881.03;4957850;28;19930;-77
2022/01/06 11:27:07;;;;;;;;;;;6.00;99.90;;;6.38;100.00;100883.69;5019925;28;20248;-77
2022/01/06 11:29:40;;;;;;;;;;;6.10;99.90;;;6.35;100.00;100878.44;5044462;28;19937;-77
2022/01/06 11:32:22;;;;;;;;;;;6.00;99.90;;;6.87;100.00;100875.00;4963036;28;20394;-77
2022/01/06 11:34:50;;;;;;;;;;;6.20;99.90;;;7.16;100.00;100879.31;4947272;28;19930;-77